Battle Creek, Nebraska
Current Conditions -  °F | °C
As of 4:56 AM on Friday 28 Nov 2014 (Local Time) from KOFK Reporting Station
Clear Clear  
Wind Chill: 17°   Ceiling: Unl
Heat Index: 26°   Visibility: 10mi
Dew Point: 19°   Wind: 9mph
Humidity: 75%   Direction: 190°S
Pressure: 29.87"   Gusts: NA
Location:  42°N, 97.6°W
Report Text: KOFK 281056Z AUTO 19008KT 10SM CLR M03/M07 A2987 RMK AO2 SLP135 T10331072
Loading
Personal Weather Stations






























Interactive Weather Map New forecast layout! Learn more

10-Day Weather Forecast

Advertisements
Track Severe Weather on mobile